createdAt,value
2017-07-18T00:01:37.006Z,21.56
2017-07-18T00:02:17.501Z,21.54
2017-07-18T00:02:57.970Z,21.44
2017-07-18T00:03:38.487Z,21.56
2017-07-18T00:04:18.969Z,21.61
2017-07-18T00:04:59.448Z,21.65
2017-07-18T00:05:39.960Z,21.52
2017-07-18T00:06:20.406Z,21.46
2017-07-18T00:07:00.881Z,21.43
2017-07-18T00:07:41.345Z,21.44
2017-07-18T00:08:21.805Z,21.31
2017-07-18T00:09:59.190Z,21.46
2017-07-18T00:10:39.660Z,21.46
2017-07-18T00:11:20.098Z,21.4
2017-07-18T00:12:00.601Z,21.44
2017-07-18T00:12:41.064Z,21.44
2017-07-18T00:13:21.515Z,21.47
2017-07-18T00:14:02.003Z,21.4
2017-07-18T00:14:42.416Z,21.31
2017-07-18T00:15:22.892Z,21.31
2017-07-18T00:16:03.333Z,21.32
2017-07-18T00:16:43.794Z,21.37
2017-07-18T00:17:24.237Z,21.35
2017-07-18T00:18:04.696Z,21.22
2017-07-18T00:19:57.287Z,21.28
2017-07-18T00:20:37.755Z,21.22
2017-07-18T00:21:18.171Z,21.38
2017-07-18T00:21:58.634Z,21.31
2017-07-18T00:22:39.105Z,21.29
2017-07-18T00:23:19.557Z,21.25
2017-07-18T00:24:00.041Z,21.34
2017-07-18T00:24:40.546Z,21.34
2017-07-18T00:25:20.999Z,21.22
2017-07-18T00:26:01.460Z,21.24
2017-07-18T00:26:41.926Z,21.19
2017-07-18T00:27:22.361Z,21.25
2017-07-18T00:29:09.978Z,21.16
2017-07-18T00:29:50.430Z,21.14
2017-07-18T00:30:30.988Z,21.12
2017-07-18T00:31:11.444Z,21.03
2017-07-18T00:31:51.908Z,21.04
2017-07-18T00:32:32.381Z,21.03
2017-07-18T00:33:12.893Z,21.1
2017-07-18T00:33:53.361Z,21.13
2017-07-18T00:35:40.804Z,21.04
2017-07-18T00:36:21.298Z,20.91
2017-07-18T00:37:01.766Z,20.98
2017-07-18T00:37:42.222Z,20.92
2017-07-18T00:38:22.678Z,20.94
2017-07-18T00:39:03.131Z,20.92
2017-07-18T00:39:43.595Z,20.85
2017-07-18T00:40:24.105Z,20.84
2017-07-18T00:41:04.512Z,20.97
2017-07-18T00:41:44.993Z,20.92
2017-07-18T00:42:25.440Z,20.91
2017-07-18T00:43:05.886Z,20.98
2017-07-18T00:43:46.325Z,20.99
2017-07-18T00:45:38.847Z,20.77
2017-07-18T00:46:19.337Z,20.64
2017-07-18T00:46:59.845Z,20.69
2017-07-18T00:47:40.326Z,20.8
2017-07-18T00:48:20.807Z,20.7
2017-07-18T00:49:01.282Z,20.66
2017-07-18T00:49:41.767Z,20.72
2017-07-18T00:50:22.241Z,20.67
2017-07-18T00:51:02.731Z,20.59
2017-07-18T00:51:43.192Z,20.66
2017-07-18T00:52:23.643Z,20.66
2017-07-18T00:53:04.085Z,20.59
2017-07-18T00:53:44.627Z,20.62
2017-07-18T00:55:37.255Z,20.59
2017-07-18T00:56:17.823Z,20.58
2017-07-18T00:56:58.242Z,20.61
2017-07-18T00:57:38.732Z,20.58
2017-07-18T00:58:19.195Z,20.48
2017-07-18T00:58:59.689Z,20.51
2017-07-18T00:59:40.189Z,20.57
2017-07-18T01:00:20.681Z,20.5
2017-07-18T01:01:01.139Z,20.54
2017-07-18T01:01:41.618Z,20.43
2017-07-18T01:02:22.111Z,20.54
2017-07-18T01:03:02.587Z,20.41
2017-07-18T01:05:00.229Z,20.35
2017-07-18T01:05:40.773Z,20.35
2017-07-18T01:06:21.282Z,20.35
2017-07-18T01:07:01.813Z,20.33
2017-07-18T01:07:42.253Z,20.33
2017-07-18T01:08:22.755Z,20.38
2017-07-18T01:09:03.238Z,20.33
2017-07-18T01:09:43.717Z,20.39
2017-07-18T01:10:24.195Z,20.47
2017-07-18T01:11:04.665Z,20.54
2017-07-18T01:11:45.116Z,20.38
2017-07-18T01:12:25.563Z,20.32
2017-07-18T01:13:06.023Z,20.24
2017-07-18T01:13:46.474Z,20.26
2017-07-18T01:14:26.932Z,20.16
2017-07-18T01:15:07.410Z,20.18
2017-07-18T01:16:59.894Z,20.08
2017-07-18T01:17:40.390Z,20.16
2017-07-18T01:18:20.873Z,20.2
2017-07-18T01:19:01.359Z,20.2
2017-07-18T01:19:41.871Z,20.16
2017-07-18T01:20:22.361Z,20.13
2017-07-18T01:21:02.840Z,20.13
2017-07-18T01:21:43.341Z,20.01
2017-07-18T01:22:23.834Z,19.99
2017-07-18T01:23:04.320Z,20.03
2017-07-18T01:23:44.817Z,20.08
2017-07-18T01:24:25.294Z,19.99
2017-07-18T01:25:05.770Z,19.91
2017-07-18T01:25:46.230Z,20.01
2017-07-18T01:26:26.686Z,19.96
2017-07-18T01:27:07.110Z,19.88
2017-07-18T01:27:47.569Z,19.88
2017-07-18T01:28:28.006Z,19.86
2017-07-18T01:29:08.489Z,19.83
2017-07-18T01:31:00.999Z,19.84
2017-07-18T01:31:41.491Z,19.69
2017-07-18T01:32:22.026Z,19.76
2017-07-18T01:33:02.511Z,19.74
2017-07-18T01:33:42.920Z,19.71
2017-07-18T01:34:23.444Z,19.77
2017-07-18T01:35:03.887Z,19.69
2017-07-18T01:35:44.348Z,19.8
2017-07-18T01:36:24.837Z,19.68
2017-07-18T01:37:05.259Z,19.65
2017-07-18T01:37:45.719Z,19.71
2017-07-18T01:38:26.195Z,19.69
2017-07-18T01:39:06.669Z,19.65
2017-07-18T01:39:47.175Z,19.63
2017-07-18T01:40:27.649Z,19.71
2017-07-18T01:41:08.131Z,19.66
2017-07-18T01:41:48.580Z,19.61
2017-07-18T01:42:29.101Z,19.59
2017-07-18T01:43:09.564Z,19.66
2017-07-18T01:43:50.056Z,19.69
2017-07-18T01:44:30.509Z,19.69
2017-07-18T01:46:43.317Z,19.63
2017-07-18T01:47:23.740Z,19.61
2017-07-18T01:48:04.187Z,19.66
2017-07-18T01:48:44.679Z,19.62
2017-07-18T01:49:25.156Z,19.66
2017-07-18T01:50:05.616Z,19.71
2017-07-18T01:50:46.089Z,19.68
2017-07-18T01:51:26.565Z,19.68
2017-07-18T01:52:06.984Z,19.65
2017-07-18T01:52:47.426Z,19.68
2017-07-18T01:53:27.893Z,19.73
2017-07-18T01:54:08.331Z,19.63
2017-07-18T01:54:48.821Z,19.63
2017-07-18T01:55:29.255Z,19.63
2017-07-18T01:56:09.724Z,19.68
2017-07-18T01:56:50.148Z,19.65
2017-07-18T01:57:30.579Z,19.65
2017-07-18T01:58:11.041Z,19.65
2017-07-18T01:58:51.496Z,19.63
2017-07-18T01:59:31.962Z,19.66
2017-07-18T02:00:12.407Z,19.65
2017-07-18T02:00:52.863Z,19.69
2017-07-18T02:01:33.338Z,19.63
2017-07-18T02:02:13.761Z,19.58
2017-07-18T02:02:54.273Z,19.56
2017-07-18T02:03:34.715Z,19.44
2017-07-18T02:05:22.316Z,19.56
2017-07-18T02:06:02.727Z,19.56
2017-07-18T02:06:43.296Z,19.5
2017-07-18T02:07:23.711Z,19.48
2017-07-18T02:08:04.064Z,19.51
2017-07-18T02:08:44.658Z,19.51
2017-07-18T02:09:25.077Z,19.47
2017-07-18T02:10:06.347Z,19.48
2017-07-18T02:10:46.842Z,19.48
2017-07-18T02:11:28.196Z,19.5
2017-07-18T02:12:08.749Z,19.54
2017-07-18T02:12:49.103Z,19.44
2017-07-18T02:13:29.532Z,19.47
2017-07-18T02:14:10.047Z,19.46
2017-07-18T02:14:50.494Z,19.51
2017-07-18T02:15:30.953Z,19.58
2017-07-18T02:16:11.413Z,19.46
2017-07-18T02:16:51.880Z,19.54
2017-07-18T02:17:32.312Z,19.44
2017-07-18T02:18:12.772Z,19.43
2017-07-18T02:18:53.855Z,19.43
2017-07-18T02:19:34.259Z,19.4
2017-07-18T02:20:14.704Z,19.4
2017-07-18T02:20:55.171Z,19.43
2017-07-18T02:21:35.668Z,19.37
2017-07-18T02:22:16.079Z,19.4
2017-07-18T02:22:56.560Z,19.36
2017-07-18T02:23:36.985Z,19.33
2017-07-18T02:24:17.437Z,19.33
2017-07-18T02:24:57.892Z,19.37
2017-07-18T02:25:38.347Z,19.37
2017-07-18T02:26:18.919Z,19.41
2017-07-18T02:26:59.385Z,19.31
2017-07-18T02:27:39.879Z,19.32
2017-07-18T02:28:21.228Z,19.32
2017-07-18T02:29:01.677Z,19.32
2017-07-18T02:29:42.128Z,19.28
2017-07-18T02:30:22.596Z,19.26
2017-07-18T02:31:03.058Z,19.25
2017-07-18T02:31:43.602Z,19.22
2017-07-18T02:32:24.062Z,19.29
2017-07-18T02:33:04.513Z,19.21
2017-07-18T02:33:44.921Z,19.23
2017-07-18T02:34:25.401Z,19.25
2017-07-18T02:35:05.866Z,19.25
2017-07-18T02:35:46.294Z,19.25
2017-07-18T02:36:26.747Z,19.28
2017-07-18T02:37:07.238Z,19.19
2017-07-18T02:37:47.653Z,19.26
2017-07-18T02:38:28.100Z,19.25
2017-07-18T02:39:08.529Z,19.23
2017-07-18T02:39:49.069Z,19.18
2017-07-18T02:40:29.455Z,19.13
2017-07-18T02:41:09.906Z,19.26
2017-07-18T02:41:50.347Z,19.11
2017-07-18T02:42:30.815Z,19.18
2017-07-18T02:43:11.292Z,19.1
2017-07-18T02:43:51.752Z,19.16
2017-07-18T02:44:32.198Z,19.08
2017-07-18T02:45:12.632Z,19
2017-07-18T02:45:53.122Z,19.07
2017-07-18T02:46:33.593Z,19.07
2017-07-18T02:47:14.719Z,19.07
2017-07-18T02:47:55.175Z,19.02
2017-07-18T02:48:35.586Z,19.04
2017-07-18T02:49:16.031Z,19.07
2017-07-18T02:49:57.230Z,18.99
2017-07-18T02:50:37.662Z,19.02
2017-07-18T02:51:18.132Z,19.04
2017-07-18T02:51:58.703Z,19
2017-07-18T02:52:39.233Z,19.08
2017-07-18T02:53:19.771Z,19.04
2017-07-18T02:54:00.150Z,19.07
2017-07-18T02:54:40.577Z,19.06
2017-07-18T02:55:21.047Z,19.08
2017-07-18T02:56:01.491Z,19.07
2017-07-18T02:56:41.955Z,19.16
2017-07-18T02:57:22.419Z,19.19
2017-07-18T02:58:02.942Z,19.18
2017-07-18T02:58:43.441Z,19.18
2017-07-18T02:59:23.889Z,19.13
2017-07-18T03:00:04.295Z,19.14
2017-07-18T03:00:44.755Z,19.11
2017-07-18T03:01:25.201Z,19.18
2017-07-18T03:02:05.662Z,19.18
2017-07-18T03:02:46.154Z,19.23
2017-07-18T03:03:26.575Z,19.19
2017-07-18T03:04:06.975Z,19.22
2017-07-18T03:04:47.468Z,19.18
2017-07-18T03:05:27.883Z,19.14
2017-07-18T03:06:08.447Z,19.16
2017-07-18T03:06:48.992Z,19.11
2017-07-18T03:07:29.423Z,19.18
2017-07-18T03:08:09.925Z,19.11
2017-07-18T03:08:50.326Z,19.02
2017-07-18T03:09:30.758Z,19.08
2017-07-18T03:10:11.200Z,19.08
2017-07-18T03:10:51.651Z,19.08
2017-07-18T03:11:32.145Z,19.04
2017-07-18T03:12:12.547Z,19.06
2017-07-18T03:12:53.169Z,19.06
2017-07-18T03:13:33.585Z,18.95
2017-07-18T03:14:14.049Z,19.02
2017-07-18T03:14:54.503Z,18.99
2017-07-18T03:15:34.998Z,18.95
2017-07-18T03:16:15.370Z,18.95
2017-07-18T03:16:55.830Z,18.95
2017-07-18T03:17:36.281Z,18.91
2017-07-18T03:18:16.787Z,18.9
2017-07-18T03:18:57.179Z,18.82
2017-07-18T03:19:37.634Z,18.84
2017-07-18T03:20:18.063Z,18.9
2017-07-18T03:20:58.572Z,18.84
2017-07-18T03:21:39.059Z,18.82
2017-07-18T03:22:19.490Z,18.85
2017-07-18T03:22:59.960Z,18.85
2017-07-18T03:23:40.406Z,18.82
2017-07-18T03:24:20.878Z,18.82
2017-07-18T03:25:02.268Z,18.73
2017-07-18T03:25:42.697Z,18.87
2017-07-18T03:26:23.160Z,18.73
2017-07-18T03:27:03.575Z,18.72
2017-07-18T03:27:43.994Z,18.73
2017-07-18T03:28:24.446Z,18.78
2017-07-18T03:29:04.920Z,18.75
2017-07-18T03:29:45.400Z,18.82
2017-07-18T03:30:25.923Z,18.84
2017-07-18T03:31:06.324Z,18.8
2017-07-18T03:31:46.810Z,18.75
2017-07-18T03:32:27.216Z,18.88
2017-07-18T03:33:07.698Z,18.84
2017-07-18T03:33:48.116Z,18.78
2017-07-18T03:34:28.597Z,18.82
2017-07-18T03:35:09.034Z,18.85
2017-07-18T03:35:49.481Z,18.7
2017-07-18T03:36:29.885Z,18.75
2017-07-18T03:37:10.322Z,18.73
2017-07-18T03:37:50.780Z,18.76
2017-07-18T03:38:31.248Z,18.78
2017-07-18T03:39:11.761Z,18.73
2017-07-18T03:39:52.159Z,18.72
2017-07-18T03:40:32.576Z,18.73
2017-07-18T03:41:13.053Z,18.73
2017-07-18T03:41:53.619Z,18.72
2017-07-18T03:42:34.024Z,18.72
2017-07-18T03:43:14.507Z,18.72
2017-07-18T03:43:54.886Z,18.69
2017-07-18T03:44:35.367Z,18.67
2017-07-18T03:45:15.800Z,18.55
2017-07-18T03:45:56.248Z,18.69
2017-07-18T03:46:36.695Z,18.63
2017-07-18T03:47:17.139Z,18.62
2017-07-18T03:47:57.560Z,18.58
2017-07-18T03:48:38.021Z,18.55
2017-07-18T03:49:18.464Z,18.55
2017-07-18T03:49:58.996Z,18.55
2017-07-18T03:50:39.418Z,18.72
2017-07-18T03:51:20.000Z,18.67
2017-07-18T03:52:00.458Z,18.62
2017-07-18T03:52:40.930Z,18.66
2017-07-18T03:53:21.424Z,18.62
2017-07-18T03:54:01.879Z,18.62
2017-07-18T03:54:42.313Z,18.63
2017-07-18T03:55:22.764Z,18.65
2017-07-18T03:56:03.270Z,18.6
2017-07-18T03:56:43.728Z,18.62
2017-07-18T03:57:24.323Z,18.57
2017-07-18T03:58:04.814Z,18.58
2017-07-18T03:58:45.198Z,18.63
2017-07-18T03:59:25.696Z,18.6
2017-07-18T04:00:06.616Z,18.65
2017-07-18T04:00:47.079Z,18.7
2017-07-18T04:01:27.515Z,18.6
2017-07-18T04:02:07.950Z,18.58
2017-07-18T04:02:48.427Z,18.69
2017-07-18T04:03:29.504Z,18.67
2017-07-18T04:04:09.984Z,18.69
2017-07-18T04:04:50.406Z,18.69
2017-07-18T04:05:30.862Z,18.69
2017-07-18T04:06:11.331Z,18.65
2017-07-18T04:06:51.820Z,18.65
2017-07-18T04:07:32.294Z,18.67
2017-07-18T04:08:12.797Z,18.65
2017-07-18T04:08:53.255Z,18.69
2017-07-18T04:09:33.721Z,18.69
2017-07-18T04:10:14.173Z,18.66
2017-07-18T04:10:54.620Z,18.67
2017-07-18T04:11:35.054Z,18.78
2017-07-18T04:12:15.560Z,18.81
2017-07-18T04:12:56.142Z,18.82
2017-07-18T04:13:36.428Z,18.81
2017-07-18T04:14:16.886Z,18.8
2017-07-18T04:14:57.297Z,18.76
2017-07-18T04:15:37.797Z,18.8
2017-07-18T04:16:18.343Z,18.82
2017-07-18T04:16:58.830Z,18.9
2017-07-18T04:17:39.212Z,18.92
2017-07-18T04:18:19.679Z,18.85
2017-07-18T04:19:00.130Z,18.88
2017-07-18T04:19:40.575Z,18.94
2017-07-18T04:20:21.080Z,18.92
2017-07-18T04:21:01.473Z,18.92
2017-07-18T04:21:41.898Z,18.95
2017-07-18T04:22:22.333Z,18.91
2017-07-18T04:23:02.849Z,18.85
2017-07-18T04:23:43.236Z,18.91
2017-07-18T04:24:23.796Z,18.85
2017-07-18T04:25:04.189Z,18.81
2017-07-18T04:25:44.615Z,18.84
2017-07-18T04:26:25.098Z,18.82
2017-07-18T04:27:05.554Z,18.8
2017-07-18T04:27:46.016Z,18.82
2017-07-18T04:28:26.581Z,18.82
2017-07-18T04:29:07.057Z,18.85
2017-07-18T04:29:47.474Z,18.91
2017-07-18T04:30:27.953Z,18.94
2017-07-18T04:31:08.355Z,18.92
2017-07-18T04:31:48.824Z,18.99
2017-07-18T04:32:29.290Z,19.04
2017-07-18T04:33:09.699Z,18.92
2017-07-18T04:33:50.142Z,18.91
2017-07-18T04:34:30.577Z,18.94
2017-07-18T04:35:11.058Z,18.98
2017-07-18T04:35:51.484Z,18.92
2017-07-18T04:36:31.935Z,19.06
2017-07-18T04:37:12.440Z,19.02
2017-07-18T04:37:52.857Z,19.13
2017-07-18T04:38:33.396Z,19.04
2017-07-18T04:39:13.906Z,19.04
2017-07-18T04:39:54.301Z,19.21
2017-07-18T04:40:34.762Z,19.19
2017-07-18T04:41:15.184Z,19.25
2017-07-18T04:41:55.644Z,19.21
2017-07-18T04:42:36.104Z,19.23
2017-07-18T04:43:16.541Z,19.26
2017-07-18T04:43:57.041Z,19.29
2017-07-18T04:44:37.494Z,19.33
2017-07-18T04:45:17.892Z,19.39
2017-07-18T04:45:58.389Z,19.41
2017-07-18T04:46:38.988Z,19.48
2017-07-18T04:47:19.364Z,19.58
2017-07-18T04:47:59.895Z,19.63
2017-07-18T04:48:40.354Z,19.58
2017-07-18T04:49:20.806Z,19.78
2017-07-18T04:50:01.271Z,19.91
2017-07-18T04:50:41.720Z,19.94
2017-07-18T04:51:22.171Z,19.98
2017-07-18T04:52:02.601Z,19.99
2017-07-18T04:52:43.178Z,20.01
2017-07-18T04:53:23.818Z,20.21
2017-07-18T04:54:04.095Z,20.29
2017-07-18T04:54:44.566Z,20.32
2017-07-18T04:55:25.101Z,20.52
2017-07-18T04:56:06.113Z,20.59
2017-07-18T04:56:46.573Z,20.57
2017-07-18T04:57:27.023Z,20.64
2017-07-18T04:58:07.484Z,20.64
2017-07-18T04:58:47.920Z,20.59
2017-07-18T04:59:28.336Z,20.66
2017-07-18T05:01:21.024Z,20.91
2017-07-18T05:02:01.503Z,21.13
2017-07-18T05:02:41.986Z,21.16
2017-07-18T05:03:22.481Z,21.28
2017-07-18T05:04:02.957Z,21.29
2017-07-18T05:04:43.420Z,21.24
2017-07-18T05:05:23.842Z,21.31
2017-07-18T05:06:04.337Z,21.27
2017-07-18T05:06:44.764Z,21.22
2017-07-18T05:07:25.210Z,21.49
2017-07-18T05:08:05.725Z,21.49
2017-07-18T05:08:46.158Z,21.52
2017-07-18T05:10:23.577Z,21.46
2017-07-18T05:11:03.984Z,21.46
2017-07-18T05:11:44.497Z,21.32
2017-07-18T05:12:24.950Z,21.47
2017-07-18T05:14:02.278Z,21.47
2017-07-18T05:14:42.747Z,21.43
2017-07-18T05:15:23.293Z,21.28
2017-07-18T05:16:03.739Z,21.22
2017-07-18T05:17:51.171Z,21.53
2017-07-18T05:18:31.683Z,21.46
2017-07-18T05:19:12.153Z,21.43
2017-07-18T05:19:52.660Z,21.44
2017-07-18T05:20:33.130Z,21.54
2017-07-18T05:21:13.597Z,21.62
2017-07-18T05:23:06.587Z,21.61
2017-07-18T05:23:46.975Z,21.88
2017-07-18T05:24:27.487Z,21.94
2017-07-18T05:25:07.940Z,21.91
2017-07-18T05:25:48.409Z,21.92
2017-07-18T05:26:28.864Z,22.06
2017-07-18T05:27:09.476Z,22.02
2017-07-18T05:27:50.016Z,21.96
2017-07-18T05:28:30.449Z,21.92
2017-07-18T05:29:10.929Z,22
2017-07-18T05:31:08.538Z,21.83
2017-07-18T05:31:49.013Z,21.79
2017-07-18T05:33:26.389Z,21.68
2017-07-18T05:34:06.817Z,21.59
2017-07-18T05:34:47.265Z,21.53
2017-07-18T05:35:27.827Z,21.61
2017-07-18T05:36:08.379Z,21.58
2017-07-18T05:36:48.871Z,21.75
2017-07-18T05:38:46.530Z,21.83
2017-07-18T05:39:26.983Z,21.8
2017-07-18T05:40:07.486Z,21.88
2017-07-18T05:40:47.960Z,21.77
2017-07-18T05:41:28.451Z,21.77
2017-07-18T05:42:08.939Z,21.84
2017-07-18T05:42:49.393Z,21.96
2017-07-18T05:43:29.882Z,22.05
2017-07-18T05:44:10.357Z,22.21
2017-07-18T05:46:02.953Z,22.42
2017-07-18T05:46:43.421Z,22.52
2017-07-18T05:47:23.899Z,22.62
2017-07-18T05:48:04.379Z,22.79
2017-07-18T05:48:44.854Z,22.9
2017-07-18T05:49:25.331Z,22.88
2017-07-18T05:51:17.866Z,23.51
2017-07-18T05:51:58.354Z,23.63
2017-07-18T05:52:38.848Z,23.68
2017-07-18T05:53:19.379Z,23.75
2017-07-18T05:53:59.823Z,23.54
2017-07-18T05:54:40.312Z,23.75
2017-07-18T05:55:20.771Z,23.66
2017-07-18T05:56:01.233Z,23.46
2017-07-18T05:57:48.672Z,23.79
2017-07-18T05:58:29.222Z,23.53
2017-07-18T05:59:09.685Z,23.84
2017-07-18T05:59:50.142Z,24.18
2017-07-18T06:00:30.626Z,24.31
2017-07-18T06:01:11.152Z,24.49
2017-07-18T06:01:51.652Z,24.22
2017-07-18T06:02:32.095Z,24.24
2017-07-18T06:03:12.591Z,23.9
2017-07-18T06:05:25.322Z,24.62
2017-07-18T06:06:05.818Z,24.62
2017-07-18T06:06:46.306Z,24.77
2017-07-18T06:07:26.824Z,24.55
2017-07-18T06:08:07.320Z,24.47
2017-07-18T06:08:47.789Z,24.08
2017-07-18T06:09:28.286Z,24
2017-07-18T06:10:08.729Z,24.39
2017-07-18T06:10:49.203Z,24.6
2017-07-18T06:11:29.639Z,24.96
2017-07-18T06:12:10.085Z,25.3
2017-07-18T06:12:50.521Z,25.62
2017-07-18T06:13:30.991Z,25.15
2017-07-18T06:14:11.495Z,25.1
2017-07-18T06:14:51.951Z,25.06
2017-07-18T06:15:32.423Z,24.96
2017-07-18T06:16:12.912Z,25.23
2017-07-18T06:16:53.391Z,25.38
2017-07-18T06:17:33.845Z,25.32
2017-07-18T06:18:14.303Z,25.25
2017-07-18T06:20:01.824Z,24.67
2017-07-18T06:20:42.319Z,25.17
2017-07-18T06:21:22.760Z,25.25
2017-07-18T06:22:03.237Z,25.28
2017-07-18T06:22:43.679Z,24.9
2017-07-18T06:23:24.125Z,25.15
2017-07-18T06:24:04.586Z,25.06
2017-07-18T06:24:45.049Z,25.55
2017-07-18T06:26:37.628Z,26.29
2017-07-18T06:27:18.257Z,25.91
2017-07-18T06:27:58.725Z,25.75
2017-07-18T06:28:39.278Z,25.79
2017-07-18T06:30:36.995Z,25.61
2017-07-18T06:31:17.425Z,25.87
2017-07-18T06:31:57.897Z,26.01
2017-07-18T06:32:38.367Z,26.12
2017-07-18T06:33:18.865Z,26.02
2017-07-18T06:35:31.646Z,26.35
2017-07-18T06:36:12.121Z,26.51
2017-07-18T06:36:52.621Z,26.69
2017-07-18T06:37:33.097Z,27.17
2017-07-18T06:38:13.542Z,27.12
2017-07-18T06:38:53.996Z,26.95
2017-07-18T06:39:34.498Z,27.09
2017-07-18T06:40:15.049Z,26.65
2017-07-18T06:40:55.674Z,26.8
2017-07-18T06:41:36.099Z,26.7
2017-07-18T06:42:16.546Z,27.31
2017-07-18T06:42:57.019Z,27.66
2017-07-18T06:43:38.035Z,27.25
2017-07-18T06:44:18.482Z,27.14
2017-07-18T06:44:58.962Z,27.25
2017-07-18T06:45:39.455Z,27.24
2017-07-18T06:46:19.921Z,27.37
2017-07-18T06:47:00.369Z,27.37
2017-07-18T06:47:40.816Z,27.03
2017-07-18T06:48:21.269Z,26.6
2017-07-18T06:49:01.746Z,26.29
2017-07-18T06:49:42.250Z,26.47
2017-07-18T06:50:22.725Z,26.6
2017-07-18T06:51:03.162Z,26.18
2017-07-18T06:51:43.647Z,26.26
2017-07-18T06:52:24.122Z,26.29
2017-07-18T06:53:04.631Z,26.35
2017-07-18T06:53:45.050Z,26.47
2017-07-18T06:54:25.613Z,26.81
2017-07-18T06:55:06.127Z,26.95
2017-07-18T06:55:46.612Z,26.8
2017-07-18T06:56:27.128Z,27.14
2017-07-18T06:57:07.616Z,27.41
2017-07-18T06:59:05.316Z,27.55
2017-07-18T06:59:45.720Z,27.46
2017-07-18T07:00:26.382Z,27.57
2017-07-18T07:01:06.829Z,27.43
2017-07-18T07:01:47.338Z,27.29
2017-07-18T07:02:27.812Z,27.4
2017-07-18T07:03:08.234Z,27.37
2017-07-18T07:04:55.880Z,27.41
2017-07-18T07:05:36.269Z,27.54
2017-07-18T07:06:16.694Z,27.37
2017-07-18T07:06:57.133Z,26.67
2017-07-18T07:07:37.581Z,26.99
2017-07-18T07:08:18.061Z,27.72
2017-07-18T07:08:58.543Z,27.9
2017-07-18T07:09:39.141Z,28.04
2017-07-18T07:10:20.220Z,27.78
2017-07-18T07:11:00.680Z,28.04
2017-07-18T07:11:41.188Z,27.99
2017-07-18T07:12:21.671Z,27.66
2017-07-18T07:13:02.159Z,27.74
2017-07-18T07:13:42.615Z,27.78
2017-07-18T07:14:23.321Z,28.04
2017-07-18T07:15:03.905Z,28.22
2017-07-18T07:15:44.355Z,28.18
2017-07-18T07:17:37.016Z,28.39
2017-07-18T07:18:17.420Z,27.99
2017-07-18T07:18:57.941Z,27.62
2017-07-18T07:19:38.800Z,27.62
2017-07-18T07:20:19.284Z,27.69
2017-07-18T07:20:59.644Z,28.06
2017-07-18T07:21:40.294Z,28.18
2017-07-18T07:22:20.712Z,28.4
2017-07-18T07:24:13.516Z,28.96
2017-07-18T07:24:53.916Z,29.08
2017-07-18T07:25:34.437Z,29.05
2017-07-18T07:26:14.886Z,28.67
2017-07-18T07:26:55.352Z,28.74
2017-07-18T07:27:35.830Z,29.11
2017-07-18T07:28:16.325Z,28.77
2017-07-18T07:28:56.852Z,29.08
2017-07-18T07:29:37.321Z,29.16
2017-07-18T07:30:17.829Z,29.28
2017-07-18T07:30:58.258Z,29.46
2017-07-18T07:31:38.736Z,29.31
2017-07-18T07:32:19.176Z,29.73
2017-07-18T07:32:59.693Z,30.38
2017-07-18T07:33:40.181Z,30.65
2017-07-18T07:34:20.668Z,31.1
2017-07-18T07:35:01.129Z,31.1
2017-07-18T07:35:41.730Z,31.1
2017-07-18T07:36:22.767Z,30.82
2017-07-18T07:37:03.217Z,30.11
2017-07-18T07:37:43.678Z,30.31
2017-07-18T07:38:24.241Z,30.08
2017-07-18T07:39:04.645Z,30.2
2017-07-18T07:39:45.115Z,30.35
2017-07-18T07:40:25.644Z,30.1
2017-07-18T07:41:06.165Z,30.32
2017-07-18T07:41:46.766Z,30.43
2017-07-18T07:42:27.224Z,30.26
2017-07-18T07:43:07.703Z,30.31
2017-07-18T07:43:48.216Z,30.27
2017-07-18T07:44:28.808Z,30.72
2017-07-18T07:45:09.545Z,30.39
2017-07-18T07:45:50.030Z,30.27
2017-07-18T07:46:30.505Z,30.26
2017-07-18T07:47:11.051Z,30.65
2017-07-18T07:47:51.551Z,30.94
2017-07-18T07:48:32.086Z,30.75
2017-07-18T07:49:12.686Z,30.72
2017-07-18T07:49:53.135Z,30.84
2017-07-18T07:50:33.603Z,30.88
2017-07-18T07:51:14.034Z,30.43
2017-07-18T07:51:54.577Z,30.2
2017-07-18T07:52:35.048Z,30.72
2017-07-18T07:53:15.496Z,30.58
2017-07-18T07:53:55.974Z,30.73
2017-07-18T07:54:36.505Z,30.91
2017-07-18T07:55:16.973Z,30.76
2017-07-18T07:55:57.418Z,30.77
2017-07-18T07:56:37.938Z,31.61
2017-07-18T07:57:18.438Z,31.86
2017-07-18T07:57:59.038Z,31.56
2017-07-18T07:58:40.516Z,31.65
2017-07-18T07:59:20.941Z,32.01
2017-07-18T08:00:01.511Z,31.75
2017-07-18T08:00:42.164Z,32.04
2017-07-18T08:01:22.640Z,32
2017-07-18T08:02:03.176Z,31.32
2017-07-18T08:02:43.708Z,31.81
2017-07-18T08:03:24.188Z,32.04
2017-07-18T08:04:05.312Z,31.85
2017-07-18T08:04:45.893Z,32.38
2017-07-18T08:05:26.450Z,32.88
2017-07-18T08:06:06.960Z,32.67
2017-07-18T08:06:47.949Z,31.95
2017-07-18T08:08:40.553Z,32.81
2017-07-18T08:09:21.145Z,32.51
2017-07-18T08:10:01.704Z,31.81
2017-07-18T08:10:42.208Z,31.78
2017-07-18T08:11:22.697Z,31.5
2017-07-18T08:12:03.208Z,31.46
2017-07-18T08:12:43.808Z,31.76
2017-07-18T08:13:24.317Z,32.45
2017-07-18T08:14:04.796Z,32.85
2017-07-18T08:14:45.292Z,32.3
2017-07-18T08:15:26.500Z,31.91
2017-07-18T08:16:07.032Z,32.21
2017-07-18T08:16:47.612Z,32.4
2017-07-18T08:17:28.079Z,32.22
2017-07-18T08:18:08.591Z,32.04
2017-07-18T08:18:49.051Z,32.41
2017-07-18T08:19:29.558Z,32.44
2017-07-18T08:20:10.149Z,32.52
2017-07-18T08:20:50.758Z,32.11
2017-07-18T08:21:31.280Z,32.52
2017-07-18T08:22:11.759Z,33.12
2017-07-18T08:22:52.611Z,33.65
2017-07-18T08:23:33.067Z,33
2017-07-18T08:24:13.623Z,32.25
2017-07-18T08:24:54.078Z,32.13
2017-07-18T08:25:34.585Z,32.13
2017-07-18T08:26:15.329Z,32.13
2017-07-18T08:26:55.984Z,32.38
2017-07-18T08:27:36.677Z,32.82
2017-07-18T08:28:17.398Z,32.59
2017-07-18T08:28:57.972Z,32.84
2017-07-18T08:29:38.544Z,32.38
2017-07-18T08:30:19.189Z,32
2017-07-18T08:30:59.824Z,31.96
2017-07-18T08:31:40.410Z,33.04
2017-07-18T08:32:21.040Z,33.51
2017-07-18T08:33:01.622Z,33.35
2017-07-18T08:33:42.391Z,33.22
2017-07-18T08:34:23.072Z,33.75
2017-07-18T08:35:04.016Z,34.09
2017-07-18T08:35:44.804Z,33.9
2017-07-18T08:36:25.502Z,33.91
2017-07-18T08:37:06.083Z,33.54
2017-07-18T08:37:46.743Z,32.87
2017-07-18T08:38:27.507Z,33.31
2017-07-18T08:40:15.044Z,33.31
2017-07-18T08:40:55.794Z,32.01
2017-07-18T08:41:36.281Z,31.99
2017-07-18T08:42:16.902Z,32.41
2017-07-18T08:42:57.642Z,32.11
2017-07-18T08:43:38.347Z,32.32
2017-07-18T08:44:18.936Z,32.84
2017-07-18T08:44:59.724Z,32.96
2017-07-18T08:45:40.255Z,33.66
2017-07-18T08:46:20.941Z,34
2017-07-18T08:47:01.832Z,33.9
2017-07-18T08:47:42.532Z,34.06
2017-07-18T08:48:23.132Z,34.62
2017-07-18T08:49:03.827Z,34.08
2017-07-18T08:49:44.386Z,33.54
2017-07-18T08:51:57.286Z,32.7
2017-07-18T08:52:37.718Z,33.42
2017-07-18T08:53:18.268Z,34.03
2017-07-18T08:53:58.774Z,34.58
2017-07-18T08:54:39.308Z,35.06
2017-07-18T08:55:19.754Z,34.61
2017-07-18T08:56:00.253Z,35.16
2017-07-18T08:57:58.228Z,36.81
2017-07-18T08:58:40.292Z,35.1
2017-07-18T08:59:21.879Z,35.14
2017-07-18T09:00:02.383Z,34.5
2017-07-18T09:02:00.108Z,35.47
2017-07-18T09:02:40.606Z,35.15
2017-07-18T09:03:21.027Z,34.73
2017-07-18T09:04:01.529Z,34.3
2017-07-18T09:04:42.035Z,34.82
2017-07-18T09:05:22.476Z,35.36
2017-07-18T09:06:02.963Z,35.4
2017-07-18T09:06:43.456Z,35.66
2017-07-18T09:07:24.116Z,35.78
2017-07-18T09:08:04.601Z,36.2
2017-07-18T09:08:45.145Z,36.29
2017-07-18T09:09:26.643Z,35.04
2017-07-18T09:10:07.079Z,35.82
2017-07-18T09:10:47.559Z,36.72
2017-07-18T09:11:28.078Z,36.87
2017-07-18T09:12:09.453Z,37.55
2017-07-18T09:12:49.900Z,37.36
2017-07-18T09:14:43.178Z,36.68
2017-07-18T09:15:23.264Z,35.75
2017-07-18T09:16:03.879Z,36.47
2017-07-18T09:16:44.281Z,37.07
2017-07-18T09:17:24.763Z,37.6
2017-07-18T09:18:05.221Z,37.78
2017-07-18T09:18:45.774Z,36.69
2017-07-18T09:19:26.360Z,35.55
2017-07-18T09:20:06.842Z,36
2017-07-18T09:20:47.478Z,35.59
2017-07-18T09:21:27.946Z,35.77
2017-07-18T09:22:08.472Z,36.05
2017-07-18T09:22:48.973Z,36.31
2017-07-18T09:24:46.932Z,38.31
2017-07-18T09:25:27.471Z,38.49
2017-07-18T09:26:08.195Z,39.21
2017-07-18T09:26:48.670Z,39.5
2017-07-18T09:27:29.208Z,40.1
2017-07-18T09:28:09.965Z,40.27
2017-07-18T09:28:50.475Z,40.26
2017-07-18T09:29:31.069Z,38.65
2017-07-18T09:30:11.738Z,37.88
2017-07-18T09:30:52.200Z,37.55